createdAt,value
2016-12-15T00:00:05.384Z,10.01
2016-12-15T00:01:38.648Z,10.07
2016-12-15T00:03:12.989Z,10.13
2016-12-15T00:04:47.375Z,10.13
2016-12-15T00:06:20.656Z,10.17
2016-12-15T00:09:57.321Z,10.24
2016-12-15T00:11:31.142Z,10.27
2016-12-15T00:13:04.416Z,10.27
2016-12-15T00:14:58.595Z,10.25
2016-12-15T00:16:33.972Z,10.26
2016-12-15T00:18:07.655Z,10.28
2016-12-15T00:19:41.490Z,10.27
2016-12-15T00:21:15.794Z,10.27
2016-12-15T00:22:53.235Z,10.26
2016-12-15T00:24:51.683Z,10.24
2016-12-15T00:26:27.968Z,10.24
2016-12-15T00:28:21.577Z,10.2
2016-12-15T00:29:58.067Z,10.16
2016-12-15T00:31:33.856Z,10.06
2016-12-15T00:33:07.591Z,10.02
2016-12-15T00:34:41.201Z,10
2016-12-15T00:36:16.002Z,10.03
2016-12-15T00:37:50.271Z,10.08
2016-12-15T00:39:23.923Z,10.06
2016-12-15T00:40:57.499Z,10.04
2016-12-15T00:42:31.194Z,10.1
2016-12-15T00:44:04.987Z,10.13
2016-12-15T00:45:38.594Z,10.21
2016-12-15T00:47:12.695Z,10.28
2016-12-15T00:49:06.050Z,10.34
2016-12-15T00:50:41.042Z,10.35
2016-12-15T02:06:47.701Z,9.99
2016-12-15T02:08:21.358Z,10
2016-12-15T02:09:54.964Z,10.04
2016-12-15T02:11:49.745Z,10.06
2016-12-15T02:13:20.108Z,10.07
2016-12-15T02:14:34.246Z,10.11
2016-12-15T02:16:35.351Z,10.15
2016-12-15T02:18:09.268Z,10.16
2016-12-15T02:19:42.860Z,10.15
2016-12-15T02:21:16.211Z,10.16
2016-12-15T02:22:49.821Z,10.14
2016-12-15T02:24:42.631Z,10.14
2016-12-15T02:26:17.195Z,10.16
2016-12-15T02:27:50.772Z,10.19
2016-12-15T02:29:27.463Z,10.21
2016-12-15T02:31:05.724Z,10.25
2016-12-15T02:33:03.032Z,10.27
2016-12-15T02:34:40.093Z,10.3
2016-12-15T02:36:11.854Z,10.35
2016-12-15T02:37:46.474Z,10.41
2016-12-15T02:39:19.768Z,10.45
2016-12-15T02:40:53.011Z,10.51
2016-12-15T02:42:26.925Z,10.56
2016-12-15T02:44:00.182Z,10.61
2016-12-15T02:45:54.921Z,10.67
2016-12-15T02:47:28.567Z,10.69
2016-12-15T02:49:02.143Z,10.74
2016-12-15T02:50:35.734Z,10.76
2016-12-15T02:52:36.651Z,10.8
2016-12-15T02:54:10.201Z,10.84
2016-12-15T02:55:43.722Z,10.84
2016-12-15T02:57:17.030Z,10.83
2016-12-15T02:58:50.630Z,10.77
2016-12-15T03:00:23.966Z,10.67
2016-12-15T03:01:57.240Z,10.63
2016-12-15T03:03:30.775Z,10.57
2016-12-15T03:05:04.071Z,10.5
2016-12-15T03:06:37.634Z,10.46
2016-12-15T03:08:10.897Z,10.41
2016-12-15T03:09:44.427Z,10.36
2016-12-15T03:11:17.721Z,10.34
2016-12-15T03:12:51.287Z,10.35
2016-12-15T03:14:24.562Z,10.31
2016-12-15T03:15:58.079Z,10.3
2016-12-15T03:17:31.420Z,10.31
2016-12-15T03:19:05.447Z,10.33
2016-12-15T03:20:38.709Z,10.35
2016-12-15T03:22:12.216Z,10.36
2016-12-15T03:23:45.512Z,10.39
2016-12-15T03:25:19.475Z,10.42
2016-12-15T03:27:12.318Z,10.42
2016-12-15T03:28:45.955Z,10.44
2016-12-15T03:30:19.489Z,10.46
2016-12-15T03:31:52.830Z,10.41
2016-12-15T03:33:27.107Z,10.36
2016-12-15T03:35:00.656Z,10.36
2016-12-15T03:36:34.056Z,10.37
2016-12-15T03:38:07.540Z,10.39
2016-12-15T03:39:41.344Z,10.41
2016-12-15T03:41:15.207Z,10.43
2016-12-15T03:42:43.453Z,10.43
2016-12-15T03:44:13.324Z,10.44
2016-12-15T03:45:27.456Z,10.46
2016-12-15T03:47:01.035Z,10.48
2016-12-15T03:48:53.875Z,10.47
2016-12-15T03:50:25.482Z,10.48
2016-12-15T03:51:39.728Z,10.52
2016-12-15T03:53:08.641Z,10.54
2016-12-15T03:54:41.914Z,10.56
2016-12-15T03:56:15.847Z,10.53
2016-12-15T03:57:49.299Z,10.48
2016-12-15T03:59:23.207Z,10.45
2016-12-15T04:00:56.875Z,10.4
2016-12-15T04:02:30.605Z,10.36
2016-12-15T04:04:23.259Z,10.3
2016-12-15T04:05:57.142Z,10.26
2016-12-15T04:07:30.434Z,10.23
2016-12-15T04:09:04.105Z,10.22
2016-12-15T04:10:37.587Z,10.21
2016-12-15T04:12:11.145Z,10.19
2016-12-15T04:13:44.426Z,10.18
2016-12-15T04:15:18.342Z,10.18
2016-12-15T04:16:51.623Z,10.18
2016-12-15T04:18:25.171Z,10.19
2016-12-15T04:19:58.534Z,10.2
2016-12-15T04:21:32.036Z,10.23
2016-12-15T04:23:07.616Z,10.27
2016-12-15T04:24:41.179Z,10.28
2016-12-15T04:26:14.896Z,10.31
2016-12-15T04:27:48.428Z,10.37
2016-12-15T04:29:21.696Z,10.36
2016-12-15T04:31:14.687Z,10.37
2016-12-15T04:32:48.213Z,10.37
2016-12-15T04:34:21.572Z,10.32
2016-12-15T04:35:54.899Z,10.27
2016-12-15T04:37:28.185Z,10.23
2016-12-15T04:39:03.174Z,10.22
2016-12-15T04:40:32.282Z,10.24
2016-12-15T04:42:05.807Z,10.25
2016-12-15T04:43:39.229Z,10.2
2016-12-15T04:45:12.785Z,10.2
2016-12-15T04:46:46.642Z,10.18
2016-12-15T04:48:20.051Z,10.14
2016-12-15T04:49:53.292Z,10.14
2016-12-15T04:51:26.627Z,10.16
2016-12-15T04:53:00.250Z,10.22
2016-12-15T04:54:28.767Z,10.31
2016-12-15T04:56:02.083Z,10.34
2016-12-15T04:57:35.731Z,10.41
2016-12-15T04:59:09.640Z,10.42
2016-12-15T05:00:39.491Z,10.45
2016-12-15T05:01:53.590Z,10.48
2016-12-15T05:03:48.160Z,10.46
2016-12-15T05:05:21.671Z,10.46
2016-12-15T05:06:51.194Z,10.46
2016-12-15T05:08:05.372Z,10.43
2016-12-15T05:09:58.209Z,10.38
2016-12-15T05:11:32.127Z,10.35
2016-12-15T05:13:06.212Z,10.35
2016-12-15T05:14:39.564Z,10.36
2016-12-15T05:16:09.140Z,10.35
2016-12-15T05:17:23.487Z,10.33
2016-12-15T05:19:16.361Z,10.29
2016-12-15T05:20:49.914Z,10.24
2016-12-15T05:22:23.414Z,10.21
2016-12-15T05:23:57.041Z,10.18
2016-12-15T05:25:26.797Z,10.15
2016-12-15T05:26:41.133Z,10.13
2016-12-15T05:28:09.461Z,10.13
2016-12-15T05:30:05.637Z,10.12
2016-12-15T05:31:19.817Z,10.12
2016-12-15T05:33:12.575Z,10.18
2016-12-15T05:34:47.159Z,10.2
2016-12-15T05:36:22.503Z,10.21
2016-12-15T05:37:55.980Z,10.21
2016-12-15T05:39:29.826Z,10.26
2016-12-15T05:41:04.705Z,10.24
2016-12-15T05:42:39.723Z,10.24
2016-12-15T05:44:14.064Z,10.24
2016-12-15T05:46:07.349Z,10.27
2016-12-15T05:47:41.226Z,10.3
2016-12-15T05:49:14.835Z,10.32
2016-12-15T05:50:48.446Z,10.36
2016-12-15T05:52:22.063Z,10.35
2016-12-15T05:55:57.605Z,10.31
2016-12-15T05:57:32.330Z,10.26
2016-12-15T05:59:05.709Z,10.27
2016-12-15T06:00:41.339Z,10.26
2016-12-15T06:02:15.278Z,10.28
2016-12-15T06:03:48.570Z,10.27
2016-12-15T06:05:21.905Z,10.23
2016-12-15T06:06:55.757Z,10.19
2016-12-15T06:08:24.501Z,10.2
2016-12-15T06:09:58.233Z,10.22
2016-12-15T06:11:31.497Z,10.25
2016-12-15T06:13:04.914Z,10.27
2016-12-15T06:14:39.091Z,10.29
2016-12-15T06:16:12.432Z,10.33
2016-12-15T06:17:45.726Z,10.34
2016-12-15T06:19:19.329Z,10.34
2016-12-15T06:20:53.293Z,10.3
2016-12-15T06:22:26.538Z,10.26
2016-12-15T06:24:00.179Z,10.21
2016-12-15T06:25:53.778Z,10.14
2016-12-15T06:27:27.382Z,10.09
2016-12-15T06:29:00.689Z,10.09
2016-12-15T06:30:34.328Z,10.07
2016-12-15T06:32:07.922Z,10.08
2016-12-15T06:33:41.369Z,10.1
2016-12-15T06:35:15.376Z,10.12
2016-12-15T06:36:48.990Z,10.14
2016-12-15T06:38:22.844Z,10.17
2016-12-15T06:39:56.152Z,10.19
2016-12-15T06:41:29.904Z,10.22
2016-12-15T06:43:03.549Z,10.2
2016-12-15T06:44:37.159Z,10.14
2016-12-15T06:46:10.916Z,10.14
2016-12-15T06:47:39.125Z,10.14
2016-12-15T06:49:12.802Z,10.14
2016-12-15T06:50:46.169Z,10.08
2016-12-15T06:52:20.317Z,10.05
2016-12-15T06:53:53.686Z,10.05
2016-12-15T09:51:00.730Z,10.83
2016-12-15T09:52:34.229Z,10.82
2016-12-15T09:54:08.463Z,10.86
2016-12-15T09:55:42.233Z,10.9
2016-12-15T09:57:15.713Z,10.92
2016-12-15T09:58:44.506Z,10.92
2016-12-15T10:00:18.633Z,10.9
2016-12-15T10:01:52.836Z,10.86
2016-12-15T10:03:26.634Z,10.89
2016-12-15T10:05:00.006Z,10.88
2016-12-15T10:06:35.150Z,10.9
2016-12-15T10:08:08.903Z,10.9
2016-12-15T10:10:02.139Z,10.86
2016-12-15T10:11:35.667Z,10.78
2016-12-15T10:13:09.017Z,10.73
2016-12-15T10:14:42.638Z,10.74
2016-12-15T10:16:12.517Z,10.77
2016-12-15T10:17:26.805Z,10.8
2016-12-15T10:19:19.615Z,10.85
2016-12-15T10:20:53.128Z,10.9
2016-12-15T10:22:26.506Z,10.93
2016-12-15T10:23:59.817Z,10.98
2016-12-15T10:25:33.484Z,11.01
2016-12-15T10:27:07.510Z,11.06
2016-12-15T10:28:40.845Z,11.09
2016-12-15T10:30:14.697Z,11.11
2016-12-15T10:31:48.514Z,11.13
2016-12-15T10:33:23.531Z,11.15
2016-12-15T10:35:28.025Z,11.16
2016-12-15T10:37:30.673Z,11.16
2016-12-15T10:40:01.965Z,11.12
2016-12-15T10:41:38.634Z,11.12
2016-12-15T10:43:13.094Z,11.09
2016-12-15T10:44:47.408Z,11.08
2016-12-15T10:46:20.848Z,11.07
2016-12-15T10:47:54.198Z,11.07
2016-12-15T10:49:27.796Z,11.05
2016-12-15T10:51:02.168Z,11.05
2016-12-15T10:52:35.591Z,11.05
2016-12-15T10:54:09.127Z,11.05
2016-12-15T10:55:43.182Z,11.05
2016-12-15T10:57:36.252Z,11.08
2016-12-15T10:59:09.695Z,11.13
2016-12-15T11:00:43.238Z,11.13
2016-12-15T11:02:18.120Z,11.14
2016-12-15T11:03:51.526Z,11.15
2016-12-15T11:05:25.651Z,11.16
2016-12-15T11:06:59.117Z,11.17
2016-12-15T11:08:33.323Z,11.18
2016-12-15T11:10:07.024Z,11.19
2016-12-15T11:11:41.000Z,11.19
2016-12-15T11:13:14.613Z,11.18
2016-12-15T11:14:48.845Z,11.19
2016-12-15T11:16:22.207Z,11.21
2016-12-15T11:17:55.622Z,11.24
2016-12-15T11:19:48.541Z,11.26
2016-12-15T11:21:22.720Z,11.3
2016-12-15T11:22:56.678Z,11.3
2016-12-15T11:24:30.384Z,11.31
2016-12-15T11:26:00.020Z,11.31
2016-12-15T11:27:34.232Z,11.34
2016-12-15T11:29:08.373Z,11.31
2016-12-15T11:30:42.037Z,11.28
2016-12-15T11:32:15.645Z,11.21
2016-12-15T11:33:49.269Z,11.13
2016-12-15T11:35:17.960Z,11.09
2016-12-15T11:36:51.657Z,11.07
2016-12-15T11:38:24.163Z,11.08
2016-12-15T11:39:59.011Z,11.09
2016-12-15T11:41:32.718Z,11.12
2016-12-15T11:43:06.488Z,11.13
2016-12-15T11:44:40.958Z,11.13
2016-12-15T11:46:14.866Z,11.12
2016-12-15T11:47:48.580Z,11.1
2016-12-15T11:49:16.953Z,11.09
2016-12-15T11:50:50.614Z,11.08
2016-12-15T11:52:25.237Z,11.05
2016-12-15T11:53:58.773Z,11.01
2016-12-15T11:55:32.282Z,11.01
2016-12-15T11:57:05.988Z,10.98
2016-12-15T11:58:40.020Z,10.94
2016-12-15T12:00:13.932Z,10.93
2016-12-15T12:01:47.492Z,10.9
2016-12-15T12:03:15.818Z,10.87
2016-12-15T12:04:44.829Z,10.86
2016-12-15T12:06:18.984Z,10.86
2016-12-15T12:07:52.579Z,10.89
2016-12-15T12:09:22.089Z,10.91
2016-12-15T12:10:36.816Z,10.91
2016-12-15T12:12:05.524Z,10.92
2016-12-15T12:13:39.601Z,10.95
2016-12-15T12:15:13.164Z,11.01
2016-12-15T12:16:41.474Z,11.05
2016-12-15T12:18:17.726Z,11.08
2016-12-15T12:19:51.290Z,11.11
2016-12-15T12:21:24.922Z,11.16
2016-12-15T12:22:58.523Z,11.17
2016-12-15T12:24:32.134Z,11.17
2016-12-15T12:26:05.677Z,11.16
2016-12-15T12:28:06.955Z,11.15
2016-12-15T12:29:41.641Z,11.13
2016-12-15T12:31:14.958Z,11.02
2016-12-15T12:32:48.682Z,10.95
2016-12-15T12:34:22.082Z,10.92
2016-12-15T12:36:43.325Z,10.93
2016-12-15T12:37:57.395Z,10.92
2016-12-15T12:39:31.095Z,10.93
2016-12-15T12:41:32.578Z,11.01
2016-12-15T12:43:06.148Z,11.04
2016-12-15T12:44:39.919Z,11.07
2016-12-15T12:46:14.322Z,11.12
2016-12-15T12:48:07.372Z,11.17
2016-12-15T12:49:41.406Z,11.23
2016-12-15T12:51:15.152Z,11.29
2016-12-15T12:52:50.576Z,11.33
2016-12-15T12:54:24.209Z,11.33
2016-12-15T12:55:58.032Z,11.31
2016-12-15T12:57:31.691Z,11.26
2016-12-15T12:59:05.411Z,11.24
2016-12-15T13:00:40.087Z,11.25
2016-12-15T13:02:13.728Z,11.26
2016-12-15T13:03:44.005Z,11.24
2016-12-15T13:05:18.590Z,11.24
2016-12-15T13:06:52.126Z,11.27
2016-12-15T13:08:20.596Z,11.3
2016-12-15T13:09:55.390Z,11.31
2016-12-15T13:11:29.444Z,11.32
2016-12-15T13:13:02.845Z,11.31
2016-12-15T13:14:36.232Z,11.29
2016-12-15T13:16:09.985Z,11.29
2016-12-15T13:17:44.515Z,11.3
2016-12-15T13:19:18.150Z,11.32
2016-12-15T13:20:47.225Z,11.35
2016-12-15T13:22:21.578Z,11.37
2016-12-15T13:23:54.918Z,11.4
2016-12-15T13:25:33.776Z,11.41
2016-12-15T13:27:28.706Z,11.41
2016-12-15T13:28:44.241Z,11.39
2016-12-15T13:30:17.639Z,11.34
2016-12-15T13:32:12.056Z,11.31
2016-12-15T13:33:45.769Z,11.28
2016-12-15T13:35:21.416Z,11.26
2016-12-15T13:36:55.877Z,11.22
2016-12-15T13:38:57.210Z,11.17
2016-12-15T13:40:31.101Z,11.15
2016-12-15T13:42:00.027Z,11.13
2016-12-15T13:43:34.021Z,11.12
2016-12-15T13:45:08.040Z,11.06
2016-12-15T13:46:41.817Z,11.03
2016-12-15T13:48:15.109Z,11.01
2016-12-15T13:49:48.834Z,11.01
2016-12-15T13:51:17.633Z,10.98
2016-12-15T13:52:51.057Z,10.96
2016-12-15T13:54:24.742Z,10.93
2016-12-15T13:55:58.774Z,10.92
2016-12-15T13:57:35.158Z,10.93
2016-12-15T13:59:08.448Z,10.93
2016-12-15T14:00:41.854Z,10.92
2016-12-15T14:02:15.496Z,10.93
2016-12-15T14:03:49.556Z,10.9
2016-12-15T14:05:22.957Z,10.88
2016-12-15T14:06:56.236Z,10.88
2016-12-15T14:08:24.428Z,10.87
2016-12-15T14:09:58.514Z,10.88
2016-12-15T14:11:32.253Z,10.87
2016-12-15T14:13:04.117Z,10.81
2016-12-15T14:14:38.014Z,10.74
2016-12-15T14:16:11.871Z,10.69
2016-12-15T14:17:45.279Z,10.62
2016-12-15T14:19:19.785Z,10.55
2016-12-15T14:20:53.405Z,10.48
2016-12-15T14:22:27.044Z,10.41
2016-12-15T14:24:00.617Z,10.38
2016-12-15T14:25:34.206Z,10.36
2016-12-15T14:27:31.750Z,10.31
2016-12-15T14:29:05.708Z,10.31
2016-12-15T14:30:39.029Z,10.27
2016-12-15T14:32:12.621Z,10.19
2016-12-15T14:33:46.708Z,10.13
2016-12-15T14:35:20.547Z,10.09
2016-12-15T14:36:54.496Z,10.05
2016-12-15T14:38:27.948Z,10.05
2016-12-15T14:40:02.012Z,10.05
2016-12-15T14:41:55.420Z,10.05
2016-12-15T14:43:29.069Z,10.02
2016-12-15T14:45:02.446Z,9.96
2016-12-15T14:46:36.114Z,9.87
2016-12-15T14:47:50.909Z,9.8
2016-12-15T14:49:24.546Z,9.71
2016-12-15T14:51:17.263Z,9.64
2016-12-15T14:52:51.951Z,9.56
2016-12-15T14:54:22.057Z,9.53
2016-12-15T14:55:36.486Z,9.5
2016-12-15T14:57:05.733Z,9.45
2016-12-15T14:58:39.085Z,9.42
2016-12-15T15:00:12.692Z,9.4
2016-12-15T15:01:46.482Z,9.39
2016-12-15T15:03:20.328Z,9.35
2016-12-15T15:04:54.021Z,9.29
2016-12-15T15:06:22.621Z,9.21
2016-12-15T15:07:56.185Z,9.18
2016-12-15T15:09:30.838Z,9.16
2016-12-15T15:11:04.667Z,9.12
2016-12-15T15:12:38.517Z,9.1
2016-12-15T15:14:12.036Z,9.07
2016-12-15T15:16:04.917Z,9.02
2016-12-15T15:17:38.819Z,9
2016-12-15T15:19:12.495Z,8.99
2016-12-15T15:20:46.816Z,8.96
2016-12-15T15:22:21.032Z,8.93
2016-12-15T15:23:54.335Z,8.89
2016-12-15T15:25:28.628Z,8.91
2016-12-15T15:27:02.087Z,8.91
2016-12-15T15:28:36.022Z,8.9
2016-12-15T15:30:09.973Z,8.89
2016-12-15T15:31:43.851Z,8.91
2016-12-15T15:33:17.363Z,8.93
2016-12-15T15:35:13.049Z,8.98
2016-12-15T15:36:46.550Z,9.02
2016-12-15T15:38:21.824Z,9.05
2016-12-15T15:39:55.881Z,9.06
2016-12-15T15:41:29.553Z,9.05
2016-12-15T15:43:03.261Z,9.06
2016-12-15T15:44:38.156Z,9.06
2016-12-15T15:46:34.911Z,9.03
2016-12-15T15:48:10.190Z,9.01
2016-12-15T15:49:45.011Z,9
2016-12-15T15:51:19.183Z,8.97
2016-12-15T15:52:52.970Z,8.99
2016-12-15T15:54:27.285Z,9
2016-12-15T15:56:00.942Z,9
2016-12-15T15:57:34.933Z,9
2016-12-15T15:59:28.597Z,9.01
2016-12-15T16:01:02.385Z,9.01
2016-12-15T16:02:35.994Z,9.02
2016-12-15T16:04:09.899Z,9.03
2016-12-15T16:05:43.603Z,9.01
2016-12-15T16:07:18.210Z,8.99
2016-12-15T16:08:51.890Z,8.96
2016-12-15T16:10:26.014Z,8.94
2016-12-15T16:11:59.842Z,8.94
2016-12-15T16:13:28.545Z,8.89
2016-12-15T16:15:02.236Z,8.84
2016-12-15T16:16:35.942Z,8.82
2016-12-15T16:18:36.963Z,8.79
2016-12-15T16:20:10.771Z,8.74
2016-12-15T16:21:45.239Z,8.73
2016-12-15T16:23:19.162Z,8.73
2016-12-15T16:24:52.621Z,8.73
2016-12-15T16:26:26.123Z,8.73
2016-12-15T16:28:00.168Z,8.75
2016-12-15T16:29:33.833Z,8.77
2016-12-15T16:31:07.364Z,8.76
2016-12-15T16:32:40.774Z,8.73
2016-12-15T16:34:14.915Z,8.73
2016-12-15T16:35:43.454Z,8.74
2016-12-15T16:37:17.160Z,8.77
2016-12-15T16:38:50.581Z,8.8
2016-12-15T16:40:24.715Z,8.8
2016-12-15T16:41:59.773Z,8.81
2016-12-15T16:43:52.933Z,8.79
2016-12-15T16:45:26.985Z,8.82
2016-12-15T16:47:00.299Z,8.85
2016-12-15T16:48:34.124Z,8.85
2016-12-15T16:50:09.105Z,8.85
2016-12-15T16:51:42.509Z,8.86
2016-12-15T16:53:16.573Z,8.85
2016-12-15T16:54:53.038Z,8.81
2016-12-15T16:56:26.782Z,8.78
2016-12-15T16:58:25.529Z,8.79
2016-12-15T17:00:02.418Z,8.81
2016-12-15T17:01:35.789Z,8.82
2016-12-15T17:03:09.652Z,8.81
2016-12-15T17:05:04.243Z,8.81
2016-12-15T17:06:37.646Z,8.83
2016-12-15T17:08:12.543Z,8.81
2016-12-15T17:09:46.142Z,8.81
2016-12-15T17:11:20.244Z,8.8
2016-12-15T17:12:54.489Z,8.8
2016-12-15T17:14:30.641Z,8.8
2016-12-15T17:16:04.655Z,8.82
2016-12-15T17:17:38.425Z,8.83
2016-12-15T17:19:12.452Z,8.81
2016-12-15T17:20:46.689Z,8.81
2016-12-15T17:22:20.727Z,8.83
2016-12-15T17:24:14.081Z,8.85
2016-12-15T17:25:47.880Z,8.83
2016-12-15T17:27:21.400Z,8.79
2016-12-15T17:28:55.312Z,8.75
2016-12-15T17:30:28.732Z,8.72
2016-12-15T17:32:02.182Z,8.7
2016-12-15T17:33:36.265Z,8.71
2016-12-15T17:35:06.385Z,8.68
2016-12-15T17:36:41.904Z,8.59
2016-12-15T17:38:12.470Z,8.5
2016-12-15T17:39:48.087Z,8.42
2016-12-15T17:41:23.583Z,8.38
2016-12-15T17:42:58.007Z,8.38
2016-12-15T17:44:32.258Z,8.36
2016-12-15T17:46:06.053Z,8.37
2016-12-15T17:47:34.970Z,8.42
2016-12-15T17:49:08.934Z,8.5
2016-12-15T17:50:42.431Z,8.51
2016-12-15T17:52:16.686Z,8.55
2016-12-15T17:53:50.391Z,8.59
2016-12-15T17:55:43.439Z,8.62
2016-12-15T17:57:17.493Z,8.62
2016-12-15T17:58:50.931Z,8.58
2016-12-15T18:00:27.737Z,8.54
2016-12-15T18:02:03.906Z,8.54
2016-12-15T18:04:09.651Z,8.51
2016-12-15T18:06:02.952Z,8.47
2016-12-15T18:08:04.706Z,8.41
2016-12-15T18:09:19.242Z,8.35
2016-12-15T18:10:53.249Z,8.29
2016-12-15T18:12:22.243Z,8.3
2016-12-15T18:13:55.721Z,8.3
2016-12-15T18:15:30.584Z,8.31
2016-12-15T18:17:04.393Z,8.33
2016-12-15T18:18:54.672Z,8.36
2016-12-15T18:20:09.934Z,8.42
2016-12-15T18:22:03.755Z,8.45
2016-12-15T18:23:37.915Z,8.5
2016-12-15T18:25:11.896Z,8.51
2016-12-15T18:26:46.576Z,8.54
2016-12-15T18:28:22.265Z,8.53
2016-12-15T18:29:57.890Z,8.53
2016-12-15T18:31:31.926Z,8.56
2016-12-15T18:33:26.236Z,8.59
2016-12-15T18:35:00.632Z,8.6
2016-12-15T18:36:36.537Z,8.62
2016-12-15T18:38:10.440Z,8.68
2016-12-15T18:39:44.636Z,8.7
2016-12-15T18:41:21.232Z,8.73
2016-12-15T18:43:17.317Z,8.73
2016-12-15T18:44:47.771Z,8.75
2016-12-15T18:46:22.123Z,8.73
2016-12-15T18:47:57.028Z,8.73
2016-12-15T18:49:30.686Z,8.74
2016-12-15T18:51:06.229Z,8.73
2016-12-15T18:52:41.606Z,8.7
2016-12-15T18:54:37.818Z,8.66
2016-12-15T18:56:12.067Z,8.56
2016-12-15T18:57:46.069Z,8.5
2016-12-15T18:59:20.866Z,8.47
2016-12-15T19:00:57.365Z,8.44
2016-12-15T19:02:32.394Z,8.45
2016-12-15T19:04:59.228Z,8.45
2016-12-15T19:06:38.309Z,8.43
2016-12-15T19:08:40.878Z,8.42
2016-12-15T19:10:17.528Z,8.43
2016-12-15T19:12:14.493Z,8.44
2016-12-15T19:13:50.958Z,8.47
2016-12-15T19:15:27.137Z,8.5
2016-12-15T19:17:22.609Z,8.54
2016-12-15T19:19:00.198Z,8.57
2016-12-15T19:20:59.829Z,8.61
2016-12-15T19:22:36.993Z,8.65
2016-12-15T19:24:35.435Z,8.66
2016-12-15T19:26:13.686Z,8.67
2016-12-15T19:28:12.675Z,8.67
2016-12-15T19:29:50.779Z,8.65
2016-12-15T19:31:50.686Z,8.66
2016-12-15T19:33:30.539Z,8.65
2016-12-15T19:35:06.167Z,8.67
2016-12-15T19:36:59.483Z,8.66
2016-12-15T19:38:35.235Z,8.68
2016-12-15T19:40:06.767Z,8.68
2016-12-15T19:41:37.151Z,8.67
2016-12-15T19:43:11.199Z,8.64
2016-12-15T19:44:48.923Z,8.61
2016-12-15T19:46:23.960Z,8.59
2016-12-15T19:47:58.324Z,8.61
2016-12-15T19:49:26.955Z,8.62
2016-12-15T19:51:00.559Z,8.63
2016-12-15T19:52:34.783Z,8.64
2016-12-15T19:54:09.186Z,8.61
2016-12-15T19:55:45.595Z,8.58
2016-12-15T19:57:40.380Z,8.55
2016-12-15T19:59:14.589Z,8.53
2016-12-15T20:00:48.567Z,8.54
2016-12-15T20:02:22.370Z,8.55
2016-12-15T20:03:57.027Z,8.57
2016-12-15T20:05:30.354Z,8.6
2016-12-15T20:07:05.423Z,8.64
2016-12-15T20:08:39.586Z,8.65
2016-12-15T20:10:14.223Z,8.66
2016-12-15T20:12:10.302Z,8.67
2016-12-15T20:13:44.112Z,8.66
2016-12-15T20:15:47.050Z,8.64
2016-12-15T20:17:22.452Z,8.63
2016-12-15T20:18:56.549Z,8.61
2016-12-15T20:20:33.721Z,8.62
2016-12-15T20:22:07.738Z,8.61
2016-12-15T20:24:03.881Z,8.6
2016-12-15T20:25:40.351Z,8.56
2016-12-15T20:27:15.848Z,8.51
2016-12-15T20:29:14.448Z,8.48
2016-12-15T20:30:50.226Z,8.47
2016-12-15T20:32:26.833Z,8.47
2016-12-15T20:34:25.292Z,8.48
2016-12-15T20:36:06.999Z,8.48
2016-12-15T20:37:43.616Z,8.48
2016-12-15T20:39:40.519Z,8.5
2016-12-15T20:41:09.248Z,8.51
2016-12-15T20:44:25.438Z,8.49
2016-12-15T20:46:19.089Z,8.47
2016-12-15T20:47:54.408Z,8.45
2016-12-15T20:49:29.163Z,8.44
2016-12-15T20:51:03.122Z,8.42
2016-12-15T20:52:37.668Z,8.43
2016-12-15T20:54:12.025Z,8.45
2016-12-15T20:55:46.084Z,8.47
2016-12-15T20:57:21.120Z,8.51
2016-12-15T20:59:17.046Z,8.56
2016-12-15T21:00:52.872Z,8.58
2016-12-15T21:02:27.827Z,8.62
2016-12-15T21:04:03.016Z,8.67
2016-12-15T21:05:56.351Z,8.7
2016-12-15T21:07:30.086Z,8.7
2016-12-15T21:09:04.539Z,8.65
2016-12-15T21:10:38.480Z,8.6
2016-12-15T21:12:12.021Z,8.56
2016-12-15T21:13:46.453Z,8.57
2016-12-15T21:15:20.167Z,8.57
2016-12-15T21:16:54.032Z,8.55
2016-12-15T21:18:27.447Z,8.52
2016-12-15T21:20:01.361Z,8.5
2016-12-15T21:21:35.477Z,8.53
2016-12-15T21:23:11.746Z,8.56
2016-12-15T21:25:04.876Z,8.57
2016-12-15T21:26:38.752Z,8.53
2016-12-15T21:28:12.646Z,8.49
2016-12-15T21:29:47.525Z,8.44
2016-12-15T21:31:21.257Z,8.45
2016-12-15T21:32:54.746Z,8.45
2016-12-15T21:34:28.842Z,8.42
2016-12-15T21:36:03.572Z,8.43
2016-12-15T21:37:37.647Z,8.44
2016-12-15T21:39:11.831Z,8.43
2016-12-15T21:40:45.603Z,8.4
2016-12-15T21:42:38.246Z,8.36
2016-12-15T21:44:12.137Z,8.31
2016-12-15T21:45:46.307Z,8.28
2016-12-15T21:47:19.981Z,8.26
2016-12-15T21:48:53.682Z,8.22
2016-12-15T21:50:27.388Z,8.19
2016-12-15T21:52:01.099Z,8.19
2016-12-15T21:53:35.218Z,8.17
2016-12-15T21:55:09.690Z,8.14
2016-12-15T21:56:43.476Z,8.14
2016-12-15T21:58:18.406Z,8.16
2016-12-15T22:00:12.128Z,8.18
2016-12-15T22:01:46.548Z,8.2
2016-12-15T22:03:21.354Z,8.19
2016-12-15T22:04:55.673Z,8.19
2016-12-15T22:06:30.683Z,8.2
2016-12-15T22:08:05.312Z,8.21
2016-12-15T22:09:38.604Z,8.19
2016-12-15T22:11:08.456Z,8.2
2016-12-15T22:12:43.718Z,8.25
2016-12-15T22:14:17.425Z,8.29
2016-12-15T22:15:50.823Z,8.3
2016-12-15T22:17:25.123Z,8.27
2016-12-15T22:19:20.490Z,8.26
2016-12-15T22:20:56.279Z,8.25
2016-12-15T22:22:30.074Z,8.24
2016-12-15T22:24:07.257Z,8.26
2016-12-15T22:25:40.915Z,8.28
2016-12-15T22:27:35.860Z,8.28
2016-12-15T22:29:11.243Z,8.28
2016-12-15T22:30:46.234Z,8.27
2016-12-15T22:32:19.733Z,8.24
2016-12-15T22:33:53.519Z,8.22
2016-12-15T22:35:30.059Z,8.19
2016-12-15T22:37:23.856Z,8.11
2016-12-15T22:38:58.178Z,8.06
2016-12-15T22:40:31.814Z,8.01
2016-12-15T22:42:05.849Z,7.98
2016-12-15T22:43:39.685Z,7.98
2016-12-15T22:45:13.399Z,7.98
2016-12-15T22:46:46.997Z,8
2016-12-15T22:48:20.887Z,8.01
2016-12-15T22:49:54.851Z,8.02
2016-12-15T22:51:28.702Z,8.03
2016-12-15T22:53:02.210Z,7.98
2016-12-15T22:54:36.196Z,7.96
2016-12-15T22:56:09.839Z,7.95
2016-12-15T22:58:02.644Z,7.95
2016-12-15T22:59:36.110Z,7.9
2016-12-15T23:01:10.301Z,7.87
2016-12-15T23:02:43.576Z,7.83
2016-12-15T23:04:13.105Z,7.8
2016-12-15T23:05:27.214Z,7.8
2016-12-15T23:07:20.497Z,7.78
2016-12-15T23:08:53.774Z,7.78
2016-12-15T23:10:27.157Z,7.75
2016-12-15T23:12:00.898Z,7.72
2016-12-15T23:13:31.065Z,7.71
2016-12-15T23:14:45.403Z,7.67
2016-12-15T23:16:38.302Z,7.65
2016-12-15T23:18:11.635Z,7.64
2016-12-15T23:19:45.675Z,7.64
2016-12-15T23:21:19.503Z,7.65
2016-12-15T23:22:53.620Z,7.65
2016-12-15T23:24:26.972Z,7.65
2016-12-15T23:26:00.609Z,7.63
2016-12-15T23:27:35.361Z,7.62
2016-12-15T23:29:10.006Z,7.62
2016-12-15T23:30:43.431Z,7.63
2016-12-15T23:32:17.204Z,7.65
2016-12-15T23:33:51.309Z,7.67
2016-12-15T23:35:44.326Z,7.68
2016-12-15T23:37:18.098Z,7.68
2016-12-15T23:38:32.295Z,7.67
2016-12-15T23:40:07.118Z,7.67
2016-12-15T23:41:40.864Z,7.68
2016-12-15T23:43:14.245Z,7.69
2016-12-15T23:44:47.661Z,7.73
2016-12-15T23:46:40.767Z,7.74
2016-12-15T23:48:15.119Z,7.74
2016-12-15T23:49:29.310Z,7.73
2016-12-15T23:51:02.739Z,7.7
2016-12-15T23:52:36.674Z,7.69
2016-12-15T23:54:10.426Z,7.68
2016-12-15T23:55:39.322Z,7.65
2016-12-15T23:57:35.764Z,7.64
2016-12-15T23:59:09.869Z,7.62
